Time;durP1;ratioP1;P1;durP2;ratioP2;P2;SDS_P1;SDS_P2;PMS_P1;PMS_P2;Temp;Humidity;BMP_temperature;BMP_pressure;BME280_temperature;BME280_humidity;BME280_pressure;Samples;Min_cycle;Max_cycle;Signal;HPM_P1;HPM_P2
2023/05/30 00:00:27;;;;;;;8.07;1.83;;;;;;;;;;6252430;28;20052;-78
2023/05/30 00:03:29;;;;;;;9.70;2.10;;;;;;;;;;6256591;28;20422;-77
2023/05/30 00:06:31;;;;;;;8.02;1.95;;;;;;;;;;6252980;28;20045;-76
2023/05/30 00:09:33;;;;;;;8.67;1.83;;;;;;;;;;6250712;28;20041;-77
2023/05/30 00:12:35;;;;;;;10.60;2.22;;;;;;;;;;6253661;28;20049;-77
2023/05/30 00:15:37;;;;;;;4.93;1.80;;;;;;;;;;6255116;28;20498;-77
2023/05/30 00:18:39;;;;;;;7.30;2.00;;;;;;;;;;6258030;28;20040;-77
2023/05/30 00:21:41;;;;;;;8.63;2.10;;;;;;;;;;6251817;28;20037;-77
2023/05/30 00:24:43;;;;;;;7.05;2.13;;;;;;;;;;6257883;28;20071;-77
2023/05/30 00:27:44;;;;;;;7.07;2.00;;;;;;;;;;6287226;28;20064;-76
2023/05/30 00:30:46;;;;;;;8.45;2.38;;;;;;;;;;6297307;28;20049;-76
2023/05/30 00:33:47;;;;;;;9.70;2.13;;;;;;;;;;6271442;28;20044;-76
2023/05/30 00:36:51;;;;;;;;;;;;;;;;;;6273106;28;20049;-78
2023/05/30 00:39:53;;;;;;;7.25;2.15;;;;;;;;;;6276648;28;19908;-75
2023/05/30 00:42:55;;;;;;;6.20;1.63;;;;;;;;;;6277894;28;20046;-75
2023/05/30 00:45:57;;;;;;;11.48;2.58;;;;;;;;;;6280449;28;20040;-75
2023/05/30 00:49:00;;;;;;;7.35;1.95;;;;;;;;;;6271114;28;20033;-76
2023/05/30 00:52:02;;;;;;;8.50;2.10;;;;;;;;;;6269345;28;20052;-77
2023/05/30 00:55:04;;;;;;;7.45;1.92;;;;;;;;;;6268676;28;20037;-76
2023/05/30 00:58:06;;;;;;;10.87;2.00;;;;;;;;;;6256906;28;20053;-77
2023/05/30 01:01:09;;;;;;;8.65;1.88;;;;;;;;;;6253323;28;20042;-76
2023/05/30 01:04:11;;;;;;;;;;;;;;;;;;6256545;28;20060;-77
2023/05/30 01:07:14;;;;;;;8.48;2.28;;;;;;;;;;6260113;28;19925;-77
2023/05/30 01:10:17;;;;;;;6.80;2.20;;;;;;;;;;6258744;28;20047;-77
2023/05/30 01:13:41;;;;;;;4.73;1.90;;;;;;;;;;6257343;28;20044;-76
2023/05/30 01:16:49;;;;;;;10.07;2.25;;;;;;;;;;6254805;28;20568;-77
2023/05/30 01:20:07;;;;;;;8.35;2.55;;;;;;;;;;6253188;28;20507;-75
2023/05/30 01:23:41;;;;;;;6.50;2.08;;;;;;;;;;6253979;28;20045;-77
2023/05/30 01:27:15;;;;;;;7.32;1.88;;;;;;;;;;6271643;28;20045;-77
2023/05/30 01:30:18;;;;;;;6.68;2.20;;;;;;;;;;6269571;28;20045;-76
2023/05/30 01:33:21;;;;;;;6.95;2.08;;;;;;;;;;6257464;28;20052;-75
2023/05/30 01:36:23;;;;;;;11.18;2.10;;;;;;;;;;6254185;28;20044;-77
2023/05/30 01:39:25;;;;;;;7.88;2.15;;;;;;;;;;6248296;28;20068;-77
2023/05/30 01:42:30;;;;;;;8.00;2.10;;;;;;;;;;6267855;28;21578;-77
2023/05/30 01:45:45;;;;;;;4.88;1.63;;;;;;;;;;6250554;28;20052;-77
2023/05/30 01:49:11;;;;;;;12.55;2.10;;;;;;;;;;6253325;28;20069;-77
2023/05/30 01:52:20;;;;;;;9.02;1.95;;;;;;;;;;6252288;28;20037;-75
2023/05/30 01:55:25;;;;;;;9.80;2.17;;;;;;;;;;6248986;28;20044;-77
2023/05/30 01:58:28;;;;;;;7.15;2.00;;;;;;;;;;6255367;28;20530;-75
2023/05/30 02:01:29;;;;;;;;;;;;;;;;;;6259985;28;20423;-76
2023/05/30 02:04:31;;;;;;;7.20;2.20;;;;;;;;;;6255836;28;20062;-77
2023/05/30 02:07:33;;;;;;;11.13;2.25;;;;;;;;;;6254230;28;20138;-77
2023/05/30 02:10:35;;;;;;;10.00;2.22;;;;;;;;;;6247832;28;20523;-77
2023/05/30 02:13:37;;;;;;;4.10;1.80;;;;;;;;;;6256631;28;20552;-77
2023/05/30 02:16:39;;;;;;;9.52;2.35;;;;;;;;;;6257855;28;20045;-76
2023/05/30 02:19:50;;;;;;;9.23;2.13;;;;;;;;;;6260145;28;20048;-77
2023/05/30 02:22:51;;;;;;;6.97;2.35;;;;;;;;;;6236988;28;20060;-78
2023/05/30 02:25:53;;;;;;;9.05;2.10;;;;;;;;;;6261609;28;20045;-77
2023/05/30 02:28:55;;;;;;;7.07;1.98;;;;;;;;;;6260971;28;20056;-78
2023/05/30 02:31:58;;;;;;;;;;;;;;;;;;6254439;28;20057;-78
2023/05/30 02:35:00;;;;;;;5.10;1.80;;;;;;;;;;6259685;28;19921;-76
2023/05/30 02:38:01;;;;;;;7.53;2.28;;;;;;;;;;6251791;28;20049;-78
2023/05/30 02:41:03;;;;;;;9.90;2.20;;;;;;;;;;6242839;28;20116;-77
2023/05/30 02:44:06;;;;;;;7.88;2.13;;;;;;;;;;6255788;28;20052;-76
2023/05/30 02:47:08;;;;;;;10.77;1.90;;;;;;;;;;6257729;28;20040;-77
2023/05/30 02:50:11;;;;;;;4.25;1.75;;;;;;;;;;6256669;28;20129;-78
2023/05/30 02:53:13;;;;;;;7.18;2.55;;;;;;;;;;6250821;28;20495;-77
2023/05/30 02:56:14;;;;;;;9.60;2.88;;;;;;;;;;6271280;28;20510;-76
2023/05/30 02:59:30;;;;;;;10.73;2.20;;;;;;;;;;6267765;28;20045;-78
2023/05/30 03:02:39;;;;;;;12.55;2.95;;;;;;;;;;6255791;28;20407;-77
2023/05/30 03:05:49;;;;;;;9.15;2.50;;;;;;;;;;6255412;28;20044;-76
2023/05/30 03:09:13;;;;;;;8.77;2.65;;;;;;;;;;6247546;28;20049;-77
2023/05/30 03:12:15;;;;;;;5.13;2.08;;;;;;;;;;6261406;28;20095;-78
2023/05/30 03:15:19;;;;;;;8.98;2.28;;;;;;;;;;6251710;28;20049;-79
2023/05/30 03:18:20;;;;;;;;;;;;;;;;;;6255143;28;20048;-76
2023/05/30 03:21:23;;;;;;;9.32;2.30;;;;;;;;;;6256547;28;19921;-77
2023/05/30 03:24:26;;;;;;;14.88;3.17;;;;;;;;;;6274915;28;20049;-78
2023/05/30 03:27:28;;;;;;;;;;;;;;;;;;6257506;28;20446;-80
2023/05/30 03:30:29;;;;;;;8.95;2.95;;;;;;;;;;6245563;28;19928;-77
2023/05/30 03:33:35;;;;;;;7.80;2.50;;;;;;;;;;6264154;28;20530;-80
2023/05/30 03:36:38;;;;;;;10.20;2.38;;;;;;;;;;6259087;28;20178;-79
2023/05/30 03:39:40;;;;;;;13.97;2.67;;;;;;;;;;6258368;28;20083;-78
2023/05/30 03:42:41;;;;;;;9.82;2.90;;;;;;;;;;6256772;28;20060;-79
2023/05/30 03:45:45;;;;;;;9.23;2.60;;;;;;;;;;6265578;28;20045;-78
2023/05/30 03:48:47;;;;;;;7.63;3.00;;;;;;;;;;6255593;28;20037;-79
2023/05/30 03:51:49;;;;;;;5.13;2.65;;;;;;;;;;6258015;28;20130;-78
2023/05/30 03:54:51;;;;;;;8.25;2.63;;;;;;;;;;6257367;28;20084;-79
2023/05/30 03:57:52;;;;;;;10.80;2.65;;;;;;;;;;6261682;28;20519;-79
2023/05/30 04:00:54;;;;;;;9.85;3.25;;;;;;;;;;6245196;28;20056;-80
2023/05/30 04:03:57;;;;;;;8.18;2.47;;;;;;;;;;6257903;28;20588;-78
2023/05/30 04:07:00;;;;;;;12.77;2.77;;;;;;;;;;6256969;28;20075;-78
2023/05/30 04:10:03;;;;;;;;;;;;;;;;;;6259181;28;20806;-78
2023/05/30 04:13:05;;;;;;;9.30;2.50;;;;;;;;;;6263882;28;20402;-79
2023/05/30 04:16:07;;;;;;;10.10;2.45;;;;;;;;;;6257749;28;20391;-79
2023/05/30 04:19:10;;;;;;;8.13;2.10;;;;;;;;;;6272439;28;20063;-78
2023/05/30 04:22:11;;;;;;;9.38;2.35;;;;;;;;;;6254627;28;20528;-77
2023/05/30 04:25:14;;;;;;;8.60;2.00;;;;;;;;;;6254281;28;20052;-78
2023/05/30 04:28:17;;;;;;;10.77;2.05;;;;;;;;;;6254194;28;20059;-78
2023/05/30 04:31:19;;;;;;;6.55;2.15;;;;;;;;;;6267037;28;20040;-77
2023/05/30 04:34:24;;;;;;;9.88;2.17;;;;;;;;;;6259607;28;20042;-79
2023/05/30 04:37:27;;;;;;;9.68;2.47;;;;;;;;;;6254529;28;20057;-79
2023/05/30 04:40:32;;;;;;;14.32;3.33;;;;;;;;;;6249201;28;20053;-79
2023/05/30 04:43:34;;;;;;;9.80;2.50;;;;;;;;;;6254909;28;20248;-78
2023/05/30 04:46:36;;;;;;;9.85;2.63;;;;;;;;;;6257926;28;20404;-77
2023/05/30 04:49:39;;;;;;;8.27;2.47;;;;;;;;;;6257069;28;20191;-79
2023/05/30 04:52:42;;;;;;;10.45;2.45;;;;;;;;;;6260094;28;20037;-78
2023/05/30 04:55:44;;;;;;;10.80;2.35;;;;;;;;;;6257269;28;20045;-77
2023/05/30 04:58:48;;;;;;;10.07;2.63;;;;;;;;;;6249246;28;20048;-79
2023/05/30 05:01:52;;;;;;;9.82;3.42;;;;;;;;;;6257460;28;20045;-78
2023/05/30 05:04:54;;;;;;;12.35;2.88;;;;;;;;;;6254063;28;20052;-78
2023/05/30 05:07:56;;;;;;;8.32;2.92;;;;;;;;;;6256972;28;20065;-78
2023/05/30 05:10:57;;;;;;;7.70;2.10;;;;;;;;;;6258994;28;20507;-77
2023/05/30 05:13:59;;;;;;;7.07;2.63;;;;;;;;;;6253862;28;20052;-77
2023/05/30 05:17:01;;;;;;;4.70;2.22;;;;;;;;;;6258610;28;20045;-79
2023/05/30 05:20:05;;;;;;;10.57;2.60;;;;;;;;;;6252310;28;20037;-79
2023/05/30 05:23:10;;;;;;;5.55;2.25;;;;;;;;;;6264291;28;20057;-78
2023/05/30 05:26:12;;;;;;;11.50;2.45;;;;;;;;;;6257434;28;20469;-78
2023/05/30 05:29:14;;;;;;;8.20;2.60;;;;;;;;;;6248022;28;20065;-78
2023/05/30 05:32:16;;;;;;;9.68;3.60;;;;;;;;;;6253554;28;20048;-78
2023/05/30 05:35:18;;;;;;;9.70;2.58;;;;;;;;;;6260847;28;20509;-77
2023/05/30 05:38:20;;;;;;;9.02;2.20;;;;;;;;;;6268165;28;20526;-78
2023/05/30 05:41:22;;;;;;;6.35;2.20;;;;;;;;;;6258672;28;20041;-77
2023/05/30 05:44:24;;;;;;;10.63;2.10;;;;;;;;;;6253908;28;20306;-77
2023/05/30 05:47:26;;;;;;;7.30;1.75;;;;;;;;;;6247575;28;20127;-79
2023/05/30 05:50:28;;;;;;;13.45;2.58;;;;;;;;;;6253744;28;20084;-78
2023/05/30 05:53:30;;;;;;;7.10;1.80;;;;;;;;;;6250213;28;20049;-77
2023/05/30 05:56:32;;;;;;;9.45;2.20;;;;;;;;;;6257526;28;20582;-79
2023/05/30 05:59:34;;;;;;;8.75;1.75;;;;;;;;;;6250706;28;20046;-78
2023/05/30 06:02:36;;;;;;;7.05;1.67;;;;;;;;;;6252715;28;20037;-77
2023/05/30 06:05:38;;;;;;;7.90;2.08;;;;;;;;;;6260518;28;20682;-78
2023/05/30 06:08:40;;;;;;;11.68;2.70;;;;;;;;;;6265391;28;20082;-77
2023/05/30 06:11:42;;;;;;;4.50;1.67;;;;;;;;;;6260381;28;20430;-77
2023/05/30 06:14:44;;;;;;;5.68;1.67;;;;;;;;;;6254929;28;20049;-78
2023/05/30 06:17:46;;;;;;;14.55;2.35;;;;;;;;;;6259207;28;20036;-79
2023/05/30 06:20:47;;;;;;;7.30;1.90;;;;;;;;;;6257749;28;20051;-78
2023/05/30 06:23:49;;;;;;;8.07;1.73;;;;;;;;;;6258129;28;20084;-78
2023/05/30 06:26:51;;;;;;;7.00;2.13;;;;;;;;;;6253927;28;20072;-78
2023/05/30 06:29:53;;;;;;;6.38;1.77;;;;;;;;;;6259640;28;20041;-78
2023/05/30 06:32:55;;;;;;;8.00;2.00;;;;;;;;;;6262964;28;20540;-78
2023/05/30 06:35:57;;;;;;;7.65;2.00;;;;;;;;;;6262559;28;20514;-78
2023/05/30 06:38:59;;;;;;;7.70;1.67;;;;;;;;;;6257415;28;20056;-79
2023/05/30 06:42:01;;;;;;;6.93;1.70;;;;;;;;;;6254772;28;20163;-78
2023/05/30 06:45:17;;;;;;;6.78;1.70;;;;;;;;;;6247052;28;20122;-76
2023/05/30 06:48:21;;;;;;;9.65;1.83;;;;;;;;;;6247981;28;20037;-78
2023/05/30 06:51:23;;;;;;;5.28;1.73;;;;;;;;;;6252099;28;20046;-78
2023/05/30 06:54:25;;;;;;;6.13;1.60;;;;;;;;;;6233566;28;20415;-77
2023/05/30 06:57:27;;;;;;;3.70;1.70;;;;;;;;;;6250524;28;20504;-78
2023/05/30 07:00:29;;;;;;;9.85;1.95;;;;;;;;;;6258972;28;20997;-78
2023/05/30 07:03:31;;;;;;;5.22;1.73;;;;;;;;;;6263391;28;20560;-78
2023/05/30 07:06:33;;;;;;;4.20;1.48;;;;;;;;;;6257197;28;20055;-77
2023/05/30 07:09:35;;;;;;;7.18;1.52;;;;;;;;;;6256539;28;20052;-78
2023/05/30 07:12:37;;;;;;;6.50;1.85;;;;;;;;;;6239876;28;20059;-78
2023/05/30 07:15:38;;;;;;;6.45;1.67;;;;;;;;;;6248922;28;20045;-78
2023/05/30 07:18:40;;;;;;;5.30;1.75;;;;;;;;;;6247986;28;20491;-78
2023/05/30 07:21:45;;;;;;;5.40;1.98;;;;;;;;;;6255138;28;20176;-77
2023/05/30 07:24:47;;;;;;;9.15;1.70;;;;;;;;;;6266052;28;20045;-76
2023/05/30 07:27:49;;;;;;;5.55;1.52;;;;;;;;;;6280027;28;20045;-76
2023/05/30 07:30:51;;;;;;;7.07;1.77;;;;;;;;;;6255400;28;20067;-77
2023/05/30 07:33:53;;;;;;;6.28;1.65;;;;;;;;;;6251637;28;20118;-78
2023/05/30 07:36:54;;;;;;;5.75;1.23;;;;;;;;;;6255185;28;20083;-76
2023/05/30 07:39:56;;;;;;;5.85;1.40;;;;;;;;;;6243031;28;20515;-76
2023/05/30 07:42:58;;;;;;;6.45;1.70;;;;;;;;;;6257673;28;20060;-76
2023/05/30 07:46:00;;;;;;;7.80;1.73;;;;;;;;;;6252054;28;20550;-77
2023/05/30 07:49:02;;;;;;;4.10;1.50;;;;;;;;;;6251160;28;20440;-77
2023/05/30 07:52:04;;;;;;;4.07;2.17;;;;;;;;;;6248874;28;20206;-77
2023/05/30 07:55:06;;;;;;;4.47;1.57;;;;;;;;;;6249282;28;20459;-77
2023/05/30 07:58:08;;;;;;;4.20;1.38;;;;;;;;;;6236803;28;20037;-76
2023/05/30 08:01:10;;;;;;;5.10;1.33;;;;;;;;;;6246530;28;20060;-77
2023/05/30 08:04:12;;;;;;;3.40;1.13;;;;;;;;;;6252177;28;20045;-75
2023/05/30 08:07:14;;;;;;;5.82;1.40;;;;;;;;;;6252264;28;20045;-76
2023/05/30 08:10:16;;;;;;;6.03;1.60;;;;;;;;;;6250423;28;20051;-76
2023/05/30 08:13:18;;;;;;;5.93;2.00;;;;;;;;;;6246782;28;20045;-76
2023/05/30 08:16:21;;;;;;;5.43;1.58;;;;;;;;;;6247320;28;20040;-76
2023/05/30 08:19:23;;;;;;;4.07;1.30;;;;;;;;;;6248333;28;20045;-77
2023/05/30 08:22:25;;;;;;;4.07;1.30;;;;;;;;;;6252725;28;20040;-77
2023/05/30 08:25:32;;;;;;;4.57;1.50;;;;;;;;;;6249775;28;20468;-80
2023/05/30 08:28:35;;;;;;;4.88;1.45;;;;;;;;;;6251415;28;20451;-77
2023/05/30 08:31:37;;;;;;;4.95;1.42;;;;;;;;;;6254659;28;20495;-78
2023/05/30 08:34:39;;;;;;;3.63;1.20;;;;;;;;;;6251255;28;20526;-77
2023/05/30 08:37:41;;;;;;;2.75;1.30;;;;;;;;;;6245992;28;20053;-77
2023/05/30 08:40:46;;;;;;;3.63;1.33;;;;;;;;;;6255233;28;20044;-77
2023/05/30 08:43:49;;;;;;;6.00;1.98;;;;;;;;;;6247801;28;20049;-76
2023/05/30 08:46:52;;;;;;;6.53;1.40;;;;;;;;;;6244795;28;20053;-76
2023/05/30 08:49:54;;;;;;;7.13;1.63;;;;;;;;;;6248779;28;20044;-76
2023/05/30 08:53:06;;;;;;;5.60;1.20;;;;;;;;;;6242449;28;20168;-76
2023/05/30 08:56:11;;;;;;;3.92;1.40;;;;;;;;;;6246449;28;20424;-76
2023/05/30 08:59:17;;;;;;;4.05;1.50;;;;;;;;;;6236325;28;20099;-79
2023/05/30 09:02:22;;;;;;;3.33;1.48;;;;;;;;;;6251619;28;20094;-77
2023/05/30 09:05:29;;;;;;;4.93;1.40;;;;;;;;;;6257574;28;20101;-79
2023/05/30 09:08:31;;;;;;;4.28;1.60;;;;;;;;;;6235230;28;20061;-78
2023/05/30 09:11:34;;;;;;;5.22;1.58;;;;;;;;;;6247991;28;20100;-77
2023/05/30 09:14:36;;;;;;;5.13;1.80;;;;;;;;;;6247274;28;20100;-78
2023/05/30 09:17:38;;;;;;;4.57;1.38;;;;;;;;;;6247878;28;20048;-77
2023/05/30 09:20:42;;;;;;;4.63;1.60;;;;;;;;;;6252015;28;20134;-77
2023/05/30 09:23:44;;;;;;;5.20;1.70;;;;;;;;;;6254481;28;20052;-77
2023/05/30 09:27:01;;;;;;;3.17;1.53;;;;;;;;;;6247134;28;21054;-77
2023/05/30 09:30:10;;;;;;;3.30;1.30;;;;;;;;;;6238986;28;20048;-79
2023/05/30 09:33:12;;;;;;;4.45;1.50;;;;;;;;;;6249404;28;20846;-76
2023/05/30 09:36:18;;;;;;;6.23;1.80;;;;;;;;;;6255460;28;20052;-77
2023/05/30 09:39:20;;;;;;;4.95;1.83;;;;;;;;;;6263412;28;20041;-77
2023/05/30 09:42:22;;;;;;;4.07;1.70;;;;;;;;;;6248253;28;20051;-77
2023/05/30 09:45:28;;;;;;;5.83;2.10;;;;;;;;;;6270384;28;20059;-77
2023/05/30 09:48:30;;;;;;;4.88;1.60;;;;;;;;;;6258784;28;20131;-76
2023/05/30 09:51:32;;;;;;;3.85;1.58;;;;;;;;;;6280852;28;21427;-77
2023/05/30 09:54:34;;;;;;;4.68;1.95;;;;;;;;;;6267282;28;20107;-77
2023/05/30 09:57:39;;;;;;;5.63;1.80;;;;;;;;;;6268109;28;20067;-77
2023/05/30 10:00:50;;;;;;;7.00;1.63;;;;;;;;;;6237525;28;20043;-78
2023/05/30 10:03:52;;;;;;;3.30;1.55;;;;;;;;;;6253134;28;20060;-78
2023/05/30 10:06:54;;;;;;;6.32;1.58;;;;;;;;;;6257925;28;20722;-77
2023/05/30 10:09:58;;;;;;;5.32;1.50;;;;;;;;;;6250581;28;20041;-78
2023/05/30 10:13:00;;;;;;;4.90;1.70;;;;;;;;;;6255960;28;20045;-77
2023/05/30 10:16:04;;;;;;;8.48;1.90;;;;;;;;;;6253877;28;20049;-77
2023/05/30 10:19:21;;;;;;;3.13;1.63;;;;;;;;;;6251106;28;20052;-78
2023/05/30 10:22:26;;;;;;;4.50;1.75;;;;;;;;;;6253445;28;20048;-77
2023/05/30 10:25:31;;;;;;;5.03;1.58;;;;;;;;;;6251667;28;20051;-77
2023/05/30 10:28:35;;;;;;;6.47;1.92;;;;;;;;;;6255578;28;20305;-77
2023/05/30 10:31:37;;;;;;;5.68;1.90;;;;;;;;;;6252515;28;20045;-77
2023/05/30 10:34:49;;;;;;;6.70;1.77;;;;;;;;;;6247843;28;20045;-77
2023/05/30 10:37:52;;;;;;;4.72;1.83;;;;;;;;;;6244876;28;20053;-77
2023/05/30 10:41:10;;;;;;;6.97;1.60;;;;;;;;;;6248709;28;20529;-77
2023/05/30 10:44:17;;;;;;;8.00;2.38;;;;;;;;;;6242202;28;20036;-78
2023/05/30 10:47:41;;;;;;;6.00;1.85;;;;;;;;;;6236192;28;20172;-76
2023/05/30 10:50:51;;;;;;;4.82;1.55;;;;;;;;;;6240027;28;20450;-77
2023/05/30 10:53:53;;;;;;;5.03;2.00;;;;;;;;;;6252958;28;20094;-76
2023/05/30 10:56:56;;;;;;;5.27;1.77;;;;;;;;;;6250870;28;20045;-77
2023/05/30 11:00:13;;;;;;;;;;;;;;;;;;6249429;28;20158;-77
2023/05/30 11:03:35;;;;;;;7.15;1.90;;;;;;;;;;6228242;28;19928;-77
2023/05/30 11:06:45;;;;;;;4.85;1.67;;;;;;;;;;6237179;28;20088;-76
2023/05/30 11:10:02;;;;;;;5.03;1.55;;;;;;;;;;6247980;28;20064;-75
2023/05/30 11:13:09;;;;;;;7.43;2.33;;;;;;;;;;6246226;28;20044;-77
2023/05/30 11:16:22;;;;;;;8.35;2.40;;;;;;;;;;6252386;28;20055;-75
2023/05/30 11:19:39;;;;;;;12.50;3.55;;;;;;;;;;6264732;28;20410;-77
2023/05/30 11:23:01;;;;;;;6.68;1.88;;;;;;;;;;6228185;28;20507;-77
2023/05/30 11:26:04;;;;;;;6.57;2.10;;;;;;;;;;6248617;28;20048;-77
2023/05/30 11:29:36;;;;;;;6.85;1.90;;;;;;;;;;6251080;28;20044;-76
2023/05/30 11:32:38;;;;;;;6.13;2.00;;;;;;;;;;6253792;28;20128;-76
2023/05/30 11:35:47;;;;;;;6.30;2.10;;;;;;;;;;6249416;28;20090;-77
2023/05/30 11:38:52;;;;;;;6.28;2.13;;;;;;;;;;6246591;28;20037;-77
2023/05/30 11:41:55;;;;;;;4.63;2.08;;;;;;;;;;6245411;28;20114;-77
2023/05/30 11:44:57;;;;;;;5.80;1.85;;;;;;;;;;6253408;28;20056;-77
2023/05/30 11:48:05;;;;;;;5.18;2.22;;;;;;;;;;6250494;28;20054;-76
2023/05/30 11:51:08;;;;;;;6.63;2.03;;;;;;;;;;6250109;28;20060;-76
2023/05/30 11:54:10;;;;;;;6.97;2.10;;;;;;;;;;6245092;28;20041;-76
2023/05/30 11:57:16;;;;;;;4.85;1.88;;;;;;;;;;6233641;28;20091;-77
2023/05/30 12:00:19;;;;;;;5.07;2.03;;;;;;;;;;6247245;28;20502;-76
2023/05/30 12:03:20;;;;;;;7.72;2.08;;;;;;;;;;6246800;28;20055;-77
2023/05/30 12:06:22;;;;;;;8.30;2.45;;;;;;;;;;6252219;28;20159;-77
2023/05/30 12:09:24;;;;;;;5.22;2.00;;;;;;;;;;6261708;28;20056;-77
2023/05/30 12:12:27;;;;;;;5.57;2.00;;;;;;;;;;6258854;28;20423;-78
2023/05/30 12:15:29;;;;;;;8.10;2.47;;;;;;;;;;6251233;28;20517;-77
2023/05/30 12:18:36;;;;;;;6.20;2.30;;;;;;;;;;6243507;28;20514;-78
2023/05/30 12:21:42;;;;;;;4.78;2.08;;;;;;;;;;6252089;28;20053;-78
2023/05/30 12:24:49;;;;;;;5.40;1.98;;;;;;;;;;6248029;28;20521;-77
2023/05/30 12:27:50;;;;;;;5.22;2.22;;;;;;;;;;6260950;28;20060;-73
2023/05/30 12:30:53;;;;;;;7.00;2.20;;;;;;;;;;6262556;28;20064;-74
2023/05/30 12:34:00;;;;;;;8.32;2.45;;;;;;;;;;6240848;28;20060;-74
2023/05/30 12:37:02;;;;;;;6.53;2.10;;;;;;;;;;6264233;28;20049;-74
2023/05/30 12:40:05;;;;;;;6.43;2.33;;;;;;;;;;6251260;28;20038;-75
2023/05/30 12:43:07;;;;;;;5.03;2.03;;;;;;;;;;6259346;28;20682;-74
2023/05/30 12:46:09;;;;;;;6.70;2.30;;;;;;;;;;6254473;28;20053;-75
2023/05/30 12:49:11;;;;;;;6.28;2.20;;;;;;;;;;6252344;28;20410;-75
2023/05/30 12:52:14;;;;;;;4.20;1.80;;;;;;;;;;6252678;28;20392;-75
2023/05/30 12:55:16;;;;;;;6.03;2.00;;;;;;;;;;6248763;28;20033;-74
2023/05/30 12:58:17;;;;;;;4.60;1.90;;;;;;;;;;6249736;28;20045;-75
2023/05/30 13:01:19;;;;;;;4.90;2.03;;;;;;;;;;6248713;28;20037;-73
2023/05/30 13:04:21;;;;;;;10.45;2.50;;;;;;;;;;6260483;28;20044;-73
2023/05/30 13:07:22;;;;;;;5.40;2.07;;;;;;;;;;6257874;28;20118;-74
2023/05/30 13:10:24;;;;;;;5.47;2.20;;;;;;;;;;6259673;28;20045;-76
2023/05/30 13:13:26;;;;;;;4.45;2.25;;;;;;;;;;6239534;28;20045;-77
2023/05/30 13:16:28;;;;;;;6.20;1.90;;;;;;;;;;6251795;28;20049;-75
2023/05/30 13:19:30;;;;;;;4.97;2.20;;;;;;;;;;6255839;28;20052;-75
2023/05/30 13:22:32;;;;;;;4.22;2.20;;;;;;;;;;6256100;28;20056;-74
2023/05/30 13:25:37;;;;;;;10.15;2.10;;;;;;;;;;6249072;28;20128;-74
2023/05/30 13:28:40;;;;;;;2.63;1.83;;;;;;;;;;6245653;28;20057;-74
2023/05/30 13:31:41;;;;;;;;;;;;;;;;;;6259616;28;20068;-74
2023/05/30 13:34:43;;;;;;;5.32;2.30;;;;;;;;;;6258371;28;19920;-77
2023/05/30 13:37:45;;;;;;;4.30;2.10;;;;;;;;;;6257166;28;20612;-77
2023/05/30 13:40:47;;;;;;;4.78;2.03;;;;;;;;;;6258296;28;20419;-77
2023/05/30 13:43:49;;;;;;;4.80;2.10;;;;;;;;;;6254601;28;20060;-78
2023/05/30 13:46:52;;;;;;;3.47;2.08;;;;;;;;;;6259521;28;20044;-77
2023/05/30 13:49:55;;;;;;;4.80;2.47;;;;;;;;;;6251386;28;20053;-78
2023/05/30 13:52:57;;;;;;;7.30;2.42;;;;;;;;;;6254085;28;20103;-78
2023/05/30 13:55:59;;;;;;;7.50;2.75;;;;;;;;;;6259524;28;20041;-77
2023/05/30 13:59:00;;;;;;;5.68;2.60;;;;;;;;;;6256317;28;20052;-80
2023/05/30 14:02:02;;;;;;;6.60;2.70;;;;;;;;;;6264738;28;20048;-78
2023/05/30 14:05:05;;;;;;;5.45;2.15;;;;;;;;;;6253401;28;20130;-77
2023/05/30 14:08:07;;;;;;;5.80;2.38;;;;;;;;;;6245857;28;20064;-78
2023/05/30 14:11:09;;;;;;;7.60;2.55;;;;;;;;;;6249478;28;20084;-77
2023/05/30 14:14:11;;;;;;;6.33;2.67;;;;;;;;;;6244531;28;20498;-77
2023/05/30 14:17:12;;;;;;;6.90;2.50;;;;;;;;;;6251586;28;20459;-77
2023/05/30 14:20:14;;;;;;;6.88;2.97;;;;;;;;;;6252238;28;20048;-76
2023/05/30 14:23:17;;;;;;;5.65;2.28;;;;;;;;;;6256070;28;20045;-76
2023/05/30 14:26:19;;;;;;;6.60;2.20;;;;;;;;;;6255308;28;20079;-78
2023/05/30 14:29:21;;;;;;;5.30;2.70;;;;;;;;;;6252711;28;20053;-77
2023/05/30 14:32:26;;;;;;;5.80;2.40;;;;;;;;;;6253121;28;20045;-77
2023/05/30 14:35:30;;;;;;;5.95;2.55;;;;;;;;;;6251181;28;20044;-77
2023/05/30 14:38:32;;;;;;;6.55;2.42;;;;;;;;;;6255891;28;20056;-78
2023/05/30 14:41:35;;;;;;;5.88;2.55;;;;;;;;;;6248412;28;20068;-75
2023/05/30 14:44:36;;;;;;;7.82;2.60;;;;;;;;;;6244110;28;20122;-76
2023/05/30 14:47:42;;;;;;;4.43;2.22;;;;;;;;;;6246600;28;20072;-75
2023/05/30 14:50:44;;;;;;;7.05;2.60;;;;;;;;;;6253623;28;20049;-75
2023/05/30 14:53:46;;;;;;;7.97;2.53;;;;;;;;;;6256840;28;20045;-78
2023/05/30 14:56:48;;;;;;;5.90;2.28;;;;;;;;;;6261611;28;20052;-78
2023/05/30 14:59:50;;;;;;;7.03;2.35;;;;;;;;;;6252535;28;20052;-76
2023/05/30 15:02:51;;;;;;;5.50;2.42;;;;;;;;;;6256207;28;20056;-77
2023/05/30 15:05:53;;;;;;;8.07;2.75;;;;;;;;;;6234838;28;20080;-74
2023/05/30 15:08:56;;;;;;;5.88;2.38;;;;;;;;;;6250550;28;20431;-74
2023/05/30 15:11:58;;;;;;;;;;;;;;;;;;6270509;28;20507;-77
2023/05/30 15:15:00;;;;;;;6.70;2.50;;;;;;;;;;6254146;28;19971;-76
2023/05/30 15:18:02;;;;;;;5.50;2.38;;;;;;;;;;6250023;28;20118;-76
2023/05/30 15:21:04;;;;;;;4.10;2.20;;;;;;;;;;6249653;28;20045;-75
2023/05/30 15:24:06;;;;;;;5.95;2.65;;;;;;;;;;6246984;28;20068;-75
2023/05/30 15:27:08;;;;;;;7.60;2.90;;;;;;;;;;6250394;28;20528;-77
2023/05/30 15:30:09;;;;;;;5.82;2.40;;;;;;;;;;6239080;28;20049;-77
2023/05/30 15:33:11;;;;;;;15.20;2.70;;;;;;;;;;6245941;28;20045;-77
2023/05/30 15:36:13;;;;;;;7.60;2.50;;;;;;;;;;6243189;28;20037;-76
2023/05/30 15:39:15;;;;;;;4.83;2.30;;;;;;;;;;6248779;28;20053;-76
2023/05/30 15:42:20;;;;;;;5.20;2.17;;;;;;;;;;6252675;28;20432;-77
2023/05/30 15:45:22;;;;;;;6.95;2.40;;;;;;;;;;6245333;28;20055;-77
2023/05/30 15:48:23;;;;;;;5.70;2.50;;;;;;;;;;6250144;28;20099;-77
2023/05/30 15:51:25;;;;;;;6.82;2.72;;;;;;;;;;6263545;28;20042;-75
2023/05/30 15:54:27;;;;;;;6.63;2.40;;;;;;;;;;6250777;28;20462;-77
2023/05/30 15:57:29;;;;;;;5.57;2.60;;;;;;;;;;6249719;28;20099;-77
2023/05/30 16:00:30;;;;;;;5.60;2.60;;;;;;;;;;6262872;28;20048;-77
2023/05/30 16:03:32;;;;;;;7.35;2.95;;;;;;;;;;6247849;28;20495;-77
2023/05/30 16:06:34;;;;;;;5.43;2.33;;;;;;;;;;6249259;28;20041;-76
2023/05/30 16:09:38;;;;;;;6.10;2.47;;;;;;;;;;6253959;28;20650;-78
2023/05/30 16:12:40;;;;;;;6.22;2.63;;;;;;;;;;6249755;28;20644;-77
2023/05/30 16:15:41;;;;;;;6.28;2.60;;;;;;;;;;6244171;28;20523;-77
2023/05/30 16:18:43;;;;;;;4.55;2.47;;;;;;;;;;6247453;28;20507;-77
2023/05/30 16:21:45;;;;;;;6.68;2.83;;;;;;;;;;6257562;28;20045;-78
2023/05/30 16:24:47;;;;;;;7.15;2.83;;;;;;;;;;6247537;28;20455;-76
2023/05/30 16:27:49;;;;;;;6.05;2.63;;;;;;;;;;6245091;28;20071;-76
2023/05/30 16:30:50;;;;;;;6.20;2.77;;;;;;;;;;6249469;28;20415;-76
2023/05/30 16:33:52;;;;;;;6.87;2.40;;;;;;;;;;6251474;28;20045;-76
2023/05/30 16:36:54;;;;;;;6.10;2.88;;;;;;;;;;6254777;28;21284;-77
2023/05/30 16:39:56;;;;;;;6.75;2.72;;;;;;;;;;6259111;28;20052;-79
2023/05/30 16:42:58;;;;;;;5.43;2.63;;;;;;;;;;6238010;28;20126;-79
2023/05/30 16:45:59;;;;;;;6.85;3.10;;;;;;;;;;6255533;28;20111;-77
2023/05/30 16:49:01;;;;;;;6.80;3.07;;;;;;;;;;6251238;28;20064;-77
2023/05/30 16:52:04;;;;;;;6.80;3.03;;;;;;;;;;6255081;28;20041;-77
2023/05/30 16:55:07;;;;;;;5.22;2.75;;;;;;;;;;6255306;28;20393;-77
2023/05/30 16:58:09;;;;;;;7.00;3.00;;;;;;;;;;6249703;28;20045;-78
2023/05/30 17:01:10;;;;;;;5.78;2.90;;;;;;;;;;6249973;28;20372;-77
2023/05/30 17:04:13;;;;;;;9.57;2.70;;;;;;;;;;6249055;28;20052;-77
2023/05/30 17:07:15;;;;;;;7.00;2.60;;;;;;;;;;6253914;28;20048;-78
2023/05/30 17:10:16;;;;;;;7.28;3.03;;;;;;;;;;6247540;28;20102;-77
2023/05/30 17:13:18;;;;;;;6.15;2.83;;;;;;;;;;6245956;28;20423;-78
2023/05/30 17:16:20;;;;;;;7.70;3.22;;;;;;;;;;6260989;28;20064;-79
2023/05/30 17:19:22;;;;;;;5.07;2.85;;;;;;;;;;6252064;28;20137;-78
2023/05/30 17:22:30;;;;;;;7.47;3.20;;;;;;;;;;6253697;28;20071;-78
2023/05/30 17:25:33;;;;;;;6.07;2.63;;;;;;;;;;6246874;28;20037;-77
2023/05/30 17:28:44;;;;;;;6.97;3.10;;;;;;;;;;6248678;28;20045;-77
2023/05/30 17:31:46;;;;;;;6.93;3.10;;;;;;;;;;6246824;28;20046;-77
2023/05/30 17:34:48;;;;;;;5.40;3.08;;;;;;;;;;6247668;28;20060;-76
2023/05/30 17:37:50;;;;;;;6.78;2.70;;;;;;;;;;6243802;28;20575;-78
2023/05/30 17:40:51;;;;;;;8.27;3.10;;;;;;;;;;6250730;28;20049;-77
2023/05/30 17:43:53;;;;;;;4.80;2.80;;;;;;;;;;6254777;28;20057;-80
2023/05/30 17:46:55;;;;;;;6.95;3.15;;;;;;;;;;6256039;28;20056;-78
2023/05/30 17:49:56;;;;;;;6.95;2.60;;;;;;;;;;6258235;28;20056;-78
2023/05/30 17:52:58;;;;;;;8.15;2.80;;;;;;;;;;6252333;28;20044;-79
2023/05/30 17:56:00;;;;;;;6.53;2.97;;;;;;;;;;6258463;28;20050;-77
2023/05/30 17:59:05;;;;;;;8.70;3.00;;;;;;;;;;6253687;28;20044;-80
2023/05/30 18:02:07;;;;;;;8.52;2.75;;;;;;;;;;6259775;28;20045;-77
2023/05/30 18:05:10;;;;;;;8.23;2.65;;;;;;;;;;6263467;28;20045;-77
2023/05/30 18:08:15;;;;;;;6.57;2.65;;;;;;;;;;6261749;28;20057;-79
2023/05/30 18:11:17;;;;;;;7.88;2.92;;;;;;;;;;6257684;28;20507;-80
2023/05/30 18:14:23;;;;;;;7.55;2.60;;;;;;;;;;6259497;28;20041;-82
2023/05/30 18:17:25;;;;;;;7.68;2.70;;;;;;;;;;6260436;28;20045;-80
2023/05/30 18:20:26;;;;;;;5.60;2.72;;;;;;;;;;6261568;28;20123;-80
2023/05/30 18:23:28;;;;;;;6.45;2.60;;;;;;;;;;6244069;28;20049;-79